createdAt,value
2022-12-06T00:01:06.567Z,6.07
2022-12-06T00:03:33.712Z,3.20
2022-12-06T00:06:03.684Z,3.53
2022-12-06T00:08:30.817Z,3.13
2022-12-06T00:11:03.443Z,3.00
2022-12-06T00:13:30.435Z,3.30
2022-12-06T00:16:00.175Z,3.30
2022-12-06T00:18:27.242Z,3.10
2022-12-06T00:20:54.240Z,2.97
2022-12-06T00:23:21.229Z,3.13
2022-12-06T00:25:48.237Z,3.40
2022-12-06T00:28:15.223Z,3.10
2022-12-06T00:30:42.203Z,3.13
2022-12-06T00:33:09.217Z,2.83
2022-12-06T00:35:36.219Z,3.57
2022-12-06T00:38:03.240Z,3.17
2022-12-06T00:40:30.232Z,2.80
2022-12-06T00:42:57.212Z,2.83
2022-12-06T00:45:24.399Z,3.00
2022-12-06T00:47:51.441Z,3.00
2022-12-06T00:50:18.463Z,3.17
2022-12-06T00:52:45.444Z,3.00
2022-12-06T00:55:12.440Z,2.93
2022-12-06T00:57:39.471Z,3.80
2022-12-06T01:00:06.826Z,2.80
2022-12-06T01:02:33.809Z,3.10
2022-12-06T01:05:00.804Z,2.93
2022-12-06T01:07:27.848Z,2.70
2022-12-06T01:09:54.815Z,3.20
2022-12-06T01:12:21.807Z,3.07
2022-12-06T01:14:48.792Z,2.83
2022-12-06T01:17:15.801Z,2.87
2022-12-06T01:19:42.765Z,3.10
2022-12-06T01:22:09.794Z,2.90
2022-12-06T01:24:37.408Z,2.73
2022-12-06T01:27:04.430Z,2.90
2022-12-06T01:29:31.405Z,3.00
2022-12-06T01:31:58.397Z,2.90
2022-12-06T01:34:25.383Z,2.90
2022-12-06T01:36:52.432Z,3.00
2022-12-06T01:39:20.476Z,3.27
2022-12-06T01:41:47.507Z,2.77
2022-12-06T01:44:33.223Z,2.80
2022-12-06T01:47:11.672Z,2.93
2022-12-06T01:49:38.642Z,2.90
2022-12-06T01:52:08.814Z,2.63
2022-12-06T01:54:35.821Z,3.07
2022-12-06T01:57:03.086Z,3.23
2022-12-06T01:59:30.068Z,2.67
2022-12-06T02:01:57.163Z,3.20
2022-12-06T02:04:24.394Z,2.60
2022-12-06T02:06:51.536Z,2.90
2022-12-06T02:09:18.568Z,3.10
2022-12-06T02:11:47.282Z,2.70
2022-12-06T02:14:14.859Z,2.93
2022-12-06T02:17:02.254Z,2.90
2022-12-06T02:19:34.225Z,2.70
2022-12-06T02:22:24.626Z,2.70
2022-12-06T02:25:07.979Z,2.63
2022-12-06T02:27:37.972Z,2.70
2022-12-06T02:30:11.115Z,2.77
2022-12-06T02:32:57.114Z,2.87
2022-12-06T02:35:30.495Z,2.93
2022-12-06T02:38:12.908Z,3.00
2022-12-06T02:40:41.769Z,3.20
2022-12-06T02:43:10.075Z,2.40
2022-12-06T02:45:39.122Z,2.73
2022-12-06T02:48:06.239Z,2.93
2022-12-06T02:50:34.837Z,3.13
2022-12-06T02:53:02.067Z,2.97
2022-12-06T02:55:29.064Z,2.73
2022-12-06T02:57:58.790Z,2.80
2022-12-06T03:00:26.157Z,2.47
2022-12-06T03:02:54.163Z,3.20
2022-12-06T03:05:22.593Z,2.60
2022-12-06T03:07:49.633Z,2.67
2022-12-06T03:10:21.658Z,3.20
2022-12-06T03:12:51.637Z,3.23
2022-12-06T03:15:34.069Z,2.83
2022-12-06T03:18:02.714Z,2.60
2022-12-06T03:20:32.692Z,3.03
2022-12-06T03:23:01.930Z,2.77
2022-12-06T03:25:28.907Z,2.60
2022-12-06T03:27:56.191Z,2.37
2022-12-06T03:30:23.297Z,2.70
2022-12-06T03:32:50.590Z,2.70
2022-12-06T03:35:19.038Z,2.67
2022-12-06T03:37:47.690Z,2.60
2022-12-06T03:40:17.568Z,3.30
2022-12-06T03:42:44.575Z,2.60
2022-12-06T03:45:12.199Z,3.17
2022-12-06T03:47:56.198Z,2.90
2022-12-06T03:50:24.360Z,3.23
2022-12-06T03:52:52.532Z,2.53
2022-12-06T03:55:19.515Z,2.50
2022-12-06T03:57:46.513Z,2.50
2022-12-06T04:00:13.891Z,2.40
2022-12-06T04:02:40.893Z,2.93
2022-12-06T04:05:08.035Z,3.00
2022-12-06T04:07:35.068Z,2.90
2022-12-06T04:10:05.263Z,2.60
2022-12-06T04:12:51.505Z,2.80
2022-12-06T04:15:18.730Z,2.97
2022-12-06T04:18:04.457Z,2.60
2022-12-06T04:20:50.335Z,2.50
2022-12-06T04:23:18.182Z,2.80
2022-12-06T04:25:45.188Z,2.40
2022-12-06T04:28:30.707Z,2.73
2022-12-06T04:31:21.734Z,2.80
2022-12-06T04:34:08.131Z,2.97
2022-12-06T04:36:54.210Z,2.83
2022-12-06T04:39:21.344Z,2.60
2022-12-06T04:42:07.409Z,2.90
2022-12-06T04:44:34.394Z,2.50
2022-12-06T04:47:01.667Z,2.60
2022-12-06T04:49:28.678Z,2.93
2022-12-06T04:51:55.883Z,2.60
2022-12-06T04:54:23.078Z,2.70
2022-12-06T04:56:50.078Z,2.50
2022-12-06T04:59:17.072Z,2.60
2022-12-06T05:01:44.057Z,2.70
2022-12-06T05:04:11.124Z,2.57
2022-12-06T05:06:38.186Z,2.50
2022-12-06T05:09:05.208Z,2.47
2022-12-06T05:11:32.961Z,2.40
2022-12-06T05:14:00.504Z,2.63
2022-12-06T05:16:27.618Z,2.27
2022-12-06T05:18:54.673Z,2.93
2022-12-06T05:21:22.719Z,2.30
2022-12-06T05:23:49.783Z,2.57
2022-12-06T05:26:17.599Z,2.80
2022-12-06T05:28:44.879Z,2.10
2022-12-06T05:31:12.039Z,2.60
2022-12-06T05:33:39.132Z,2.13
2022-12-06T05:36:09.756Z,2.80
2022-12-06T05:38:36.819Z,2.43
2022-12-06T05:41:04.046Z,2.30
2022-12-06T05:43:31.083Z,2.20
2022-12-06T05:45:58.328Z,2.20
2022-12-06T05:48:25.405Z,2.10
2022-12-06T05:50:53.795Z,2.43
2022-12-06T05:53:20.884Z,2.30
2022-12-06T05:55:47.947Z,2.57
2022-12-06T05:58:15.092Z,2.53
2022-12-06T06:00:42.104Z,2.43
2022-12-06T06:03:09.188Z,2.30
2022-12-06T06:05:36.287Z,2.30
2022-12-06T06:08:03.338Z,2.20
2022-12-06T06:10:30.388Z,2.37
2022-12-06T06:12:57.364Z,2.50
2022-12-06T06:15:24.340Z,2.90
2022-12-06T06:17:51.307Z,2.23
2022-12-06T06:20:18.380Z,2.63
2022-12-06T06:22:45.364Z,2.57
2022-12-06T06:25:12.420Z,2.70
2022-12-06T06:27:39.592Z,2.70
2022-12-06T06:30:08.260Z,2.77
2022-12-06T06:32:35.456Z,2.50
2022-12-06T06:35:02.628Z,2.50
2022-12-06T06:37:29.658Z,2.80
2022-12-06T06:39:56.679Z,2.40
2022-12-06T06:42:23.700Z,2.17
2022-12-06T06:44:51.808Z,2.43
2022-12-06T06:47:18.819Z,2.07
2022-12-06T06:49:45.785Z,2.37
2022-12-06T06:52:12.771Z,2.23
2022-12-06T06:54:39.752Z,2.30
2022-12-06T06:57:06.755Z,2.50
2022-12-06T06:59:33.793Z,2.20
2022-12-06T07:02:00.845Z,2.20
2022-12-06T07:04:27.845Z,2.03
2022-12-06T07:06:54.838Z,2.27
2022-12-06T07:09:21.877Z,2.43
2022-12-06T07:11:48.892Z,2.13
2022-12-06T07:14:15.872Z,1.80
2022-12-06T07:16:42.936Z,2.37
2022-12-06T07:19:10.515Z,2.27
2022-12-06T07:21:37.532Z,2.00
2022-12-06T07:24:04.767Z,2.00
2022-12-06T07:26:31.802Z,2.50
2022-12-06T07:28:58.958Z,2.20
2022-12-06T07:31:26.896Z,2.33
2022-12-06T07:33:54.631Z,2.30
2022-12-06T07:36:22.725Z,2.33
2022-12-06T07:38:50.433Z,2.13
2022-12-06T07:41:36.566Z,2.47
2022-12-06T07:44:22.515Z,2.27
2022-12-06T07:46:49.678Z,2.10
2022-12-06T07:49:17.170Z,2.20
2022-12-06T07:51:47.050Z,1.80
2022-12-06T07:54:14.277Z,2.13
2022-12-06T07:56:41.535Z,2.60
2022-12-06T07:59:08.626Z,2.70
2022-12-06T08:01:35.616Z,1.90
2022-12-06T08:04:05.672Z,2.00
2022-12-06T08:06:33.136Z,1.77
2022-12-06T08:09:00.244Z,2.27
2022-12-06T08:11:28.538Z,2.00
2022-12-06T08:13:55.544Z,1.97
2022-12-06T08:16:22.613Z,1.90
2022-12-06T08:18:49.736Z,1.77
2022-12-06T08:21:16.777Z,1.57
2022-12-06T08:23:43.771Z,1.97
2022-12-06T08:26:12.318Z,1.80
2022-12-06T08:28:39.314Z,2.03
2022-12-06T08:31:13.382Z,1.87
2022-12-06T08:33:40.522Z,1.60
2022-12-06T08:36:08.920Z,1.90
2022-12-06T08:38:36.879Z,1.70
2022-12-06T08:41:04.154Z,1.70
2022-12-06T08:43:31.471Z,1.90
2022-12-06T08:45:58.700Z,1.90
2022-12-06T08:48:25.714Z,1.57
2022-12-06T08:50:52.707Z,2.00
2022-12-06T08:53:19.698Z,2.07
2022-12-06T08:56:01.905Z,1.80
2022-12-06T08:58:29.656Z,1.70
2022-12-06T09:00:56.659Z,1.70
2022-12-06T09:03:23.635Z,1.73
2022-12-06T09:05:50.627Z,1.80
2022-12-06T09:08:17.687Z,1.87
2022-12-06T09:10:44.768Z,1.63
2022-12-06T09:13:11.769Z,1.67
2022-12-06T09:15:39.155Z,1.77
2022-12-06T09:18:06.196Z,1.70
2022-12-06T09:20:33.190Z,1.83
2022-12-06T09:23:00.188Z,1.50
2022-12-06T09:25:27.164Z,1.50
2022-12-06T09:27:54.166Z,1.67
2022-12-06T09:30:21.166Z,1.67
2022-12-06T09:32:48.434Z,1.77
2022-12-06T09:35:17.862Z,1.63
2022-12-06T09:37:47.948Z,1.70
2022-12-06T09:40:17.706Z,1.60
2022-12-06T09:42:53.922Z,1.70
2022-12-06T09:45:31.190Z,1.70
2022-12-06T09:48:08.143Z,1.40
2022-12-06T09:50:58.007Z,1.50
2022-12-06T09:53:42.275Z,1.50
2022-12-06T09:56:20.755Z,1.73
2022-12-06T09:59:00.521Z,1.60
2022-12-06T10:01:33.713Z,1.57
2022-12-06T10:04:06.801Z,1.60
2022-12-06T10:06:37.607Z,1.60
2022-12-06T10:09:09.166Z,1.40
2022-12-06T10:11:40.587Z,1.70
2022-12-06T10:14:10.804Z,1.40
2022-12-06T10:17:00.851Z,1.60
2022-12-06T10:19:36.996Z,1.60
2022-12-06T10:22:13.502Z,1.30
2022-12-06T10:24:57.729Z,1.50
2022-12-06T10:27:27.277Z,2.10
2022-12-06T10:30:10.563Z,1.60
2022-12-06T10:32:49.911Z,1.53
2022-12-06T10:35:40.638Z,1.43
2022-12-06T10:38:23.131Z,1.47
2022-12-06T10:40:56.757Z,1.60
2022-12-06T10:43:32.908Z,1.50
2022-12-06T10:46:30.173Z,1.47
2022-12-06T10:49:05.352Z,1.80
2022-12-06T10:51:34.473Z,1.30
2022-12-06T10:54:03.188Z,1.30
2022-12-06T10:56:30.730Z,1.33
2022-12-06T10:58:59.322Z,1.30
2022-12-06T11:01:28.209Z,1.60
2022-12-06T11:03:58.360Z,1.50
2022-12-06T11:06:35.108Z,1.77
2022-12-06T11:09:22.422Z,1.50
2022-12-06T11:11:49.714Z,1.37
2022-12-06T11:14:19.367Z,1.37
2022-12-06T11:16:50.694Z,1.63
2022-12-06T11:19:22.234Z,1.27
2022-12-06T11:21:50.738Z,1.50
2022-12-06T11:24:26.862Z,1.10
2022-12-06T11:27:05.397Z,1.30
2022-12-06T11:29:32.398Z,1.30
2022-12-06T11:32:00.640Z,1.70
2022-12-06T11:34:54.082Z,1.50
2022-12-06T11:37:23.701Z,1.40
2022-12-06T11:39:51.733Z,1.33
2022-12-06T11:42:19.654Z,1.10
2022-12-06T11:44:50.073Z,1.47
2022-12-06T11:47:18.205Z,1.60
2022-12-06T11:49:45.486Z,1.47
2022-12-06T11:52:30.983Z,1.50
2022-12-06T11:54:59.073Z,1.50
2022-12-06T11:57:27.646Z,1.40
2022-12-06T12:00:08.232Z,1.20
2022-12-06T12:02:35.290Z,1.60
2022-12-06T12:05:09.243Z,1.90
2022-12-06T12:07:36.301Z,1.27
2022-12-06T12:10:03.804Z,1.50
2022-12-06T12:12:56.830Z,1.57
2022-12-06T12:15:23.875Z,1.40
2022-12-06T12:17:52.305Z,1.77
2022-12-06T12:20:23.452Z,1.90
2022-12-06T12:22:54.320Z,2.70
2022-12-06T12:25:28.457Z,3.00
2022-12-06T12:27:56.023Z,3.90
2022-12-06T12:30:27.395Z,3.60
2022-12-06T12:33:09.534Z,3.60
2022-12-06T12:35:37.379Z,2.80
2022-12-06T12:38:05.450Z,3.40
2022-12-06T12:40:35.941Z,2.57
2022-12-06T12:43:11.910Z,2.80
2022-12-06T12:45:40.628Z,2.63
2022-12-06T12:48:24.098Z,3.03
2022-12-06T12:50:54.572Z,2.77
2022-12-06T12:53:31.774Z,2.20
2022-12-06T12:56:06.418Z,2.70
2022-12-06T12:58:36.128Z,2.20
2022-12-06T13:01:04.308Z,2.47
2022-12-06T13:06:44.615Z,2.87
2022-12-06T13:09:15.148Z,2.47
2022-12-06T13:11:43.653Z,2.43
2022-12-06T13:14:14.290Z,2.50
2022-12-06T13:16:42.393Z,2.50
2022-12-06T13:19:09.793Z,2.30
2022-12-06T13:21:41.214Z,2.43
2022-12-06T13:24:11.279Z,2.87
2022-12-06T13:26:45.457Z,2.43
2022-12-06T13:29:18.527Z,2.40
2022-12-06T13:31:45.515Z,2.60
2022-12-06T13:34:36.068Z,2.47
2022-12-06T13:37:04.630Z,2.70
2022-12-06T13:39:31.610Z,2.67
2022-12-06T13:42:17.884Z,2.67
2022-12-06T13:44:50.982Z,2.70
2022-12-06T13:47:26.991Z,3.07
2022-12-06T13:49:54.448Z,3.30
2022-12-06T13:52:40.309Z,3.40
2022-12-06T13:55:25.866Z,3.80
2022-12-06T13:57:56.064Z,4.87
2022-12-06T14:00:29.370Z,3.87
2022-12-06T14:03:03.448Z,4.80
2022-12-06T14:08:16.298Z,4.50
2022-12-06T14:10:43.373Z,4.37
2022-12-06T14:13:15.627Z,4.23
2022-12-06T14:15:45.852Z,4.00
2022-12-06T14:18:19.676Z,4.33
2022-12-06T14:20:47.366Z,5.03
2022-12-06T14:23:30.583Z,4.57
2022-12-06T14:26:13.183Z,4.37
2022-12-06T14:28:40.246Z,3.97
2022-12-06T14:31:07.801Z,4.40
2022-12-06T14:33:37.038Z,4.53
2022-12-06T14:36:04.130Z,4.70
2022-12-06T14:38:31.484Z,4.80
2022-12-06T14:41:17.264Z,4.70
2022-12-06T14:43:46.895Z,4.70
2022-12-06T14:46:14.284Z,4.10
2022-12-06T14:48:59.795Z,4.33
2022-12-06T14:51:27.857Z,3.70
2022-12-06T14:53:54.879Z,4.53
2022-12-06T14:56:29.253Z,3.90
2022-12-06T14:58:57.239Z,4.33
2022-12-06T15:01:24.991Z,6.40
2022-12-06T15:04:05.329Z,5.67
2022-12-06T15:06:33.003Z,6.67
2022-12-06T15:08:59.985Z,6.23
2022-12-06T15:11:48.381Z,7.50
2022-12-06T15:14:15.411Z,5.97
2022-12-06T15:16:44.054Z,7.63
2022-12-06T15:19:12.759Z,6.80
2022-12-06T15:21:40.032Z,6.63
2022-12-06T15:24:15.655Z,7.30
2022-12-06T15:26:42.648Z,7.00
2022-12-06T15:29:09.621Z,6.70
2022-12-06T15:31:36.650Z,6.40
2022-12-06T15:34:03.704Z,7.60
2022-12-06T15:36:33.120Z,7.60
2022-12-06T15:39:00.128Z,6.67
2022-12-06T15:41:27.735Z,7.37
2022-12-06T15:43:54.913Z,7.00
2022-12-06T15:46:23.713Z,6.97
2022-12-06T15:48:51.024Z,7.07
2022-12-06T15:51:20.888Z,6.10
2022-12-06T15:53:48.324Z,6.70
2022-12-06T15:56:15.850Z,6.97
2022-12-06T15:58:43.259Z,6.80
2022-12-06T16:01:17.106Z,6.30
2022-12-06T16:03:44.194Z,6.63
2022-12-06T16:06:12.310Z,6.50
2022-12-06T16:08:39.291Z,7.33
2022-12-06T16:11:13.543Z,7.03
2022-12-06T16:13:40.539Z,6.10
2022-12-06T16:16:07.786Z,5.90
2022-12-06T16:18:34.876Z,6.20
2022-12-06T16:21:01.980Z,6.30
2022-12-06T16:26:35.808Z,6.87
2022-12-06T16:29:03.382Z,6.47
2022-12-06T16:31:30.492Z,5.67
2022-12-06T16:33:57.718Z,7.30
2022-12-06T16:36:26.073Z,6.13
2022-12-06T16:38:57.506Z,6.17
2022-12-06T16:41:25.890Z,5.83
2022-12-06T16:43:52.897Z,5.13
2022-12-06T16:46:20.168Z,5.27
2022-12-06T16:48:51.256Z,5.50
2022-12-06T16:51:22.436Z,5.00
2022-12-06T16:53:49.682Z,5.87
2022-12-06T16:56:16.675Z,5.63
2022-12-06T16:58:43.714Z,5.17
2022-12-06T17:03:49.371Z,6.97
2022-12-06T17:06:16.021Z,5.40
2022-12-06T17:08:42.883Z,5.67
2022-12-06T17:11:36.055Z,5.37
2022-12-06T17:14:02.774Z,5.40
2022-12-06T17:16:29.839Z,5.57
2022-12-06T17:18:56.702Z,7.30
2022-12-06T17:21:23.303Z,5.67
2022-12-06T17:23:49.980Z,6.03
2022-12-06T17:26:16.556Z,5.87
2022-12-06T17:28:43.184Z,5.90
2022-12-06T17:31:09.928Z,5.47
2022-12-06T17:33:36.582Z,5.27
2022-12-06T17:36:07.738Z,5.33
2022-12-06T17:38:34.364Z,5.60
2022-12-06T17:41:20.945Z,6.20
2022-12-06T17:43:47.537Z,6.07
2022-12-06T17:46:14.174Z,5.83
2022-12-06T17:48:44.522Z,6.67
2022-12-06T17:51:11.524Z,6.37
2022-12-06T17:53:38.123Z,6.63
2022-12-06T17:56:21.482Z,6.87
2022-12-06T17:58:48.077Z,6.30
2022-12-06T18:01:14.730Z,6.20
2022-12-06T18:03:41.443Z,6.10
2022-12-06T18:06:10.464Z,6.03
2022-12-06T18:08:37.424Z,5.87
2022-12-06T18:11:05.949Z,7.17
2022-12-06T18:13:32.538Z,6.13
2022-12-06T18:15:59.119Z,5.90
2022-12-06T18:18:25.754Z,6.40
2022-12-06T18:20:52.361Z,6.10
2022-12-06T18:23:18.955Z,5.80
2022-12-06T18:25:45.546Z,5.30
2022-12-06T18:28:12.138Z,5.37
2022-12-06T18:30:38.897Z,5.20
2022-12-06T18:33:05.482Z,5.80
2022-12-06T18:35:35.324Z,5.73
2022-12-06T18:38:02.142Z,5.50
2022-12-06T18:40:31.391Z,5.23
2022-12-06T18:42:57.984Z,5.57
2022-12-06T18:45:24.739Z,4.93
2022-12-06T18:47:51.350Z,5.10
2022-12-06T18:50:18.006Z,5.80
2022-12-06T18:52:44.590Z,5.70
2022-12-06T18:55:11.189Z,5.17
2022-12-06T18:57:38.244Z,4.80
2022-12-06T19:00:06.518Z,5.17
2022-12-06T19:02:33.269Z,5.90
2022-12-06T19:05:00.872Z,5.70
2022-12-06T19:07:27.599Z,5.87
2022-12-06T19:09:54.360Z,5.57
2022-12-06T19:12:20.938Z,6.60
2022-12-06T19:14:47.527Z,5.40
2022-12-06T19:17:14.097Z,6.47
2022-12-06T19:19:40.740Z,5.40
2022-12-06T19:22:07.337Z,5.43
2022-12-06T19:24:34.084Z,5.47
2022-12-06T19:27:00.794Z,5.00
2022-12-06T19:29:27.778Z,5.43
2022-12-06T19:31:54.430Z,5.17
2022-12-06T19:34:22.824Z,5.37
2022-12-06T19:36:50.150Z,5.53
2022-12-06T19:39:17.832Z,5.77
2022-12-06T19:42:03.343Z,4.87
2022-12-06T19:44:30.083Z,5.10
2022-12-06T19:46:56.727Z,5.20
2022-12-06T19:49:24.178Z,4.90
2022-12-06T19:51:50.967Z,4.93
2022-12-06T19:54:23.293Z,4.77
2022-12-06T19:56:50.535Z,4.63
2022-12-06T19:59:17.143Z,4.90
2022-12-06T20:01:44.512Z,5.00
2022-12-06T20:04:15.160Z,5.20
2022-12-06T20:06:41.751Z,4.20
2022-12-06T20:09:08.377Z,3.87
2022-12-06T20:11:57.183Z,4.60
2022-12-06T20:14:23.792Z,4.20
2022-12-06T20:16:50.693Z,4.30
2022-12-06T20:19:17.818Z,4.67
2022-12-06T20:21:44.551Z,4.37
2022-12-06T20:24:11.879Z,3.97
2022-12-06T20:26:38.535Z,3.40
2022-12-06T20:29:05.140Z,4.07
2022-12-06T20:31:31.734Z,4.57
2022-12-06T20:33:59.087Z,3.93
2022-12-06T20:36:25.929Z,4.30
2022-12-06T20:38:53.255Z,3.83
2022-12-06T20:41:21.857Z,4.63
2022-12-06T20:43:48.554Z,4.20
2022-12-06T20:46:16.657Z,4.30
2022-12-06T20:48:43.674Z,3.80
2022-12-06T20:51:15.243Z,4.30
2022-12-06T20:53:41.833Z,4.37
2022-12-06T20:56:10.710Z,4.10
2022-12-06T20:58:37.426Z,4.33
2022-12-06T21:01:04.318Z,4.00
2022-12-06T21:03:34.220Z,3.77
2022-12-06T21:06:05.671Z,3.77
2022-12-06T21:08:32.295Z,3.70
2022-12-06T21:11:22.705Z,4.53
2022-12-06T21:13:45.560Z,3.80
2022-12-06T21:16:19.518Z,4.10
2022-12-06T21:18:46.228Z,3.80
2022-12-06T21:21:27.130Z,4.00
2022-12-06T21:23:53.751Z,3.87
2022-12-06T21:26:20.360Z,3.97
2022-12-06T21:28:46.974Z,4.17
2022-12-06T21:31:13.696Z,3.93
2022-12-06T21:33:40.369Z,3.87
2022-12-06T21:36:07.178Z,3.90
2022-12-06T21:38:34.180Z,3.87
2022-12-06T21:41:12.036Z,3.13
2022-12-06T21:43:38.641Z,3.47
2022-12-06T21:46:19.289Z,3.50
2022-12-06T21:48:50.056Z,3.63
2022-12-06T21:51:16.779Z,3.80
2022-12-06T21:53:43.426Z,3.53
2022-12-06T21:56:14.843Z,3.23
2022-12-06T21:58:41.440Z,3.30
2022-12-06T22:01:22.055Z,3.17
2022-12-06T22:03:49.471Z,3.20
2022-12-06T22:06:16.278Z,3.07
2022-12-06T22:08:43.638Z,3.27
2022-12-06T22:11:14.496Z,3.40
2022-12-06T22:13:41.273Z,2.90
2022-12-06T22:16:08.976Z,3.80
2022-12-06T22:18:41.031Z,3.43
2022-12-06T22:21:14.768Z,3.00
2022-12-06T22:23:41.405Z,3.67
2022-12-06T22:26:08.948Z,2.80
2022-12-06T22:28:35.694Z,2.97
2022-12-06T22:31:14.163Z,2.83
2022-12-06T22:33:40.929Z,3.67
2022-12-06T22:36:07.888Z,3.10
2022-12-06T22:38:34.677Z,3.10
2022-12-06T22:41:01.341Z,3.07
2022-12-06T22:43:28.559Z,3.17
2022-12-06T22:45:55.264Z,3.00
2022-12-06T22:48:21.857Z,3.07
2022-12-06T22:50:48.452Z,2.97
2022-12-06T22:53:15.026Z,3.20
2022-12-06T22:55:41.621Z,3.27
2022-12-06T22:58:08.207Z,2.87
2022-12-06T23:00:34.783Z,3.23
2022-12-06T23:03:01.359Z,2.87
2022-12-06T23:05:27.966Z,3.47
2022-12-06T23:07:56.833Z,3.00
2022-12-06T23:10:23.523Z,2.90
2022-12-06T23:12:50.120Z,2.63
2022-12-06T23:15:16.755Z,3.23
2022-12-06T23:17:43.334Z,2.67
2022-12-06T23:20:10.109Z,2.70
2022-12-06T23:22:36.768Z,2.70
2022-12-06T23:25:03.370Z,2.60
2022-12-06T23:27:29.978Z,2.83
2022-12-06T23:29:56.564Z,2.90
2022-12-06T23:32:23.247Z,2.70
2022-12-06T23:34:49.832Z,3.43
2022-12-06T23:37:16.417Z,2.70
2022-12-06T23:39:43.068Z,2.60
2022-12-06T23:42:09.669Z,2.90
2022-12-06T23:44:37.027Z,2.70
2022-12-06T23:47:03.687Z,3.10
2022-12-06T23:49:30.654Z,2.73
2022-12-06T23:51:57.244Z,2.23
2022-12-06T23:54:23.817Z,2.33
2022-12-06T23:56:50.454Z,2.70
2022-12-06T23:59:17.764Z,2.90
